Time;durP1;ratioP1;P1;durP2;ratioP2;P2;SDS_P1;SDS_P2;PMS_P1;PMS_P2;Temp;Humidity;BMP_temperature;BMP_pressure;BME280_temperature;BME280_humidity;BME280_pressure;Samples;Min_cycle;Max_cycle;Signal;HPM_P1;HPM_P2
2021/12/31 00:01:43;;;;;;;7.53;2.85;;;;;;;13.05;90.83;101614.88;4946457;29;20135;-71
2021/12/31 00:04:09;;;;;;;9.63;2.53;;;;;;;13.04;91.00;101624.09;4936753;29;20027;-70
2021/12/31 00:06:34;;;;;;;8.05;2.58;;;;;;;13.03;90.83;101618.88;4936504;29;20035;-70
2021/12/31 00:08:59;;;;;;;6.25;2.47;;;;;;;13.02;90.78;101631.63;4936741;29;20028;-71
2021/12/31 00:11:25;;;;;;;8.82;2.53;;;;;;;13.05;90.26;101619.50;4936361;29;20032;-70
2021/12/31 00:13:50;;;;;;;11.32;2.58;;;;;;;13.02;91.06;101625.38;4937295;29;20047;-71
2021/12/31 00:16:15;;;;;;;7.40;2.58;;;;;;;13.02;90.63;101628.91;4936286;29;20118;-71
2021/12/31 00:18:40;;;;;;;7.88;2.95;;;;;;;13.00;90.68;101630.19;4936553;29;20498;-71
2021/12/31 00:21:06;;;;;;;7.07;2.40;;;;;;;13.00;90.61;101616.59;4936465;29;20027;-71
2021/12/31 00:23:32;;;;;;;8.25;2.60;;;;;;;13.03;90.11;101624.31;4919142;29;20386;-71
2021/12/31 00:25:57;;;;;;;8.18;2.45;;;;;;;13.01;90.69;101627.25;4936352;29;20038;-71
2021/12/31 00:28:22;;;;;;;9.13;2.58;;;;;;;12.99;90.70;101632.09;4936363;29;20031;-71
2021/12/31 00:30:53;;;;;;;8.82;2.63;;;;;;;13.04;89.84;101631.41;4936053;29;20416;-71
2021/12/31 00:33:18;;;;;;;7.40;2.28;;;;;;;13.00;90.14;101632.91;4951726;29;20035;-71
2021/12/31 00:35:44;;;;;;;13.02;2.97;;;;;;;13.02;90.10;101647.13;4954584;29;20027;-74
2021/12/31 00:38:09;;;;;;;6.50;2.45;;;;;;;13.00;89.71;101630.19;4938094;29;20118;-73
2021/12/31 00:40:35;;;;;;;11.32;2.58;;;;;;;13.00;89.70;101630.19;4954150;29;20398;-73
2021/12/31 00:43:00;;;;;;;8.88;2.47;;;;;;;13.02;89.39;101634.34;4955190;29;20067;-73
2021/12/31 00:45:26;;;;;;;10.00;2.90;;;;;;;13.01;89.42;101626.44;4954531;28;20035;-73
2021/12/31 00:47:52;;;;;;;5.28;2.20;;;;;;;13.02;89.33;101630.81;4955007;29;20031;-73
2021/12/31 00:50:18;;;;;;;6.50;2.75;;;;;;;13.03;89.13;101635.19;4955163;29;20035;-73
2021/12/31 00:52:44;;;;;;;5.70;2.15;;;;;;;13.02;89.28;101631.63;4939890;29;20368;-73
2021/12/31 00:55:10;;;;;;;6.45;2.58;;;;;;;13.06;88.48;101626.63;4935819;29;20072;-73
2021/12/31 00:57:36;;;;;;;8.05;2.45;;;;;;;13.00;89.26;101630.19;4945754;29;20043;-73
2021/12/31 01:00:05;;;;;;;7.80;2.33;;;;;;;13.02;88.97;101636.25;4954922;29;20451;-73
2021/12/31 01:02:30;;;;;;;5.72;2.17;;;;;;;13.02;88.86;101637.06;4949876;29;20058;-73
2021/12/31 01:04:57;;;;;;;6.80;2.30;;;;;;;13.05;88.71;101631.19;4935903;29;20035;-73
2021/12/31 01:07:22;;;;;;;5.18;2.10;;;;;;;13.04;88.78;101639.56;4935688;29;20043;-73
2021/12/31 01:09:47;;;;;;;7.65;2.65;;;;;;;13.05;88.61;101638.53;4935388;29;20388;-73
2021/12/31 01:12:14;;;;;;;6.97;2.60;;;;;;;13.02;88.98;101633.53;4935330;29;20048;-73
2021/12/31 01:14:52;;;;;;;9.48;2.28;;;;;;;13.03;88.30;101632.47;4918123;29;20035;-73
2021/12/31 01:17:23;;;;;;;8.02;2.20;;;;;;;13.01;88.71;101629.97;4935893;29;20095;-73
2021/12/31 01:19:50;;;;;;;5.45;2.40;;;;;;;13.03;88.53;101633.31;4935324;29;20032;-73
2021/12/31 01:22:18;;;;;;;8.68;2.33;;;;;;;13.01;88.41;101623.72;4936517;29;20036;-73
2021/12/31 01:24:45;;;;;;;5.75;2.08;;;;;;;13.03;88.02;101627.03;4935258;29;20035;-73
2021/12/31 01:27:12;;;;;;;6.18;2.40;;;;;;;13.02;88.58;101625.38;4918118;29;20038;-73
2021/12/31 01:29:37;;;;;;;7.28;2.70;;;;;;;13.00;88.36;101622.03;4919041;29;20431;-73
2021/12/31 01:32:03;;;;;;;11.25;2.30;;;;;;;13.02;88.10;101619.94;4935675;29;20028;-73
2021/12/31 01:34:29;;;;;;;4.45;2.05;;;;;;;13.01;88.28;101627.25;4935209;29;20028;-73
2021/12/31 01:36:54;;;;;;;8.32;2.47;;;;;;;12.99;88.49;101631.25;4934702;29;20099;-73
2021/12/31 01:39:19;;;;;;;7.88;2.25;;;;;;;13.00;88.04;101630.19;4935336;29;20059;-73
2021/12/31 01:41:45;;;;;;;6.32;2.20;;;;;;;13.04;87.63;101629.53;4935153;29;20083;-73
2021/12/31 01:44:10;;;;;;;6.88;2.00;;;;;;;13.03;87.80;101629.75;4952336;29;20371;-74
2021/12/31 01:46:39;;;;;;;6.00;2.30;;;;;;;13.04;87.48;101628.69;4953979;29;20066;-73
2021/12/31 01:49:17;;;;;;;6.65;2.20;;;;;;;13.01;87.70;101634.56;4934991;29;20490;-74
2021/12/31 01:51:42;;;;;;;7.55;2.40;;;;;;;13.03;87.51;101646.03;4935052;29;20078;-73
2021/12/31 01:54:08;;;;;;;8.07;2.28;;;;;;;13.03;87.48;101629.75;4934849;29;20036;-73
2021/12/31 01:56:35;;;;;;;6.00;2.45;;;;;;;13.04;87.34;101642.28;4936708;29;20036;-73
2021/12/31 01:59:00;;;;;;;8.20;2.30;;;;;;;13.07;87.33;101644.56;4939064;29;20065;-73
2021/12/31 02:01:25;;;;;;;4.82;2.25;;;;;;;13.03;87.40;101649.63;4941775;29;20434;-71
2021/12/31 02:03:52;;;;;;;5.93;2.15;;;;;;;13.09;86.79;101648.72;4954002;29;20039;-71
2021/12/31 02:06:17;;;;;;;7.45;2.08;;;;;;;13.10;86.52;101650.41;4958099;29;20031;-71
2021/12/31 02:08:42;;;;;;;8.75;2.05;;;;;;;13.09;86.61;101647.91;4957757;29;20038;-71
2021/12/31 02:11:08;;;;;;;14.40;2.13;;;;;;;13.07;86.66;101639.97;4940754;29;20034;-71
2021/12/31 02:13:35;;;;;;;7.72;2.22;;;;;;;13.08;86.47;101646.22;4958097;29;20426;-70
2021/12/31 02:16:00;;;;;;;6.72;2.30;;;;;;;13.08;86.93;101648.94;4957883;29;20063;-70
2021/12/31 02:18:29;;;;;;;4.55;2.28;;;;;;;13.06;86.74;101642.91;4957420;29;20031;-71
2021/12/31 02:20:55;;;;;;;6.70;2.20;;;;;;;13.07;86.01;101647.28;4957524;29;20038;-71
2021/12/31 02:23:31;;;;;;;6.25;2.20;;;;;;;13.07;86.26;101647.28;4957813;29;20031;-70
2021/12/31 02:25:57;;;;;;;8.60;2.33;;;;;;;13.07;86.60;101647.28;4957514;29;20027;-71
2021/12/31 02:28:22;;;;;;;5.78;2.50;;;;;;;13.06;86.44;101653.78;4956103;29;20096;-71
2021/12/31 02:30:47;;;;;;;8.50;2.30;;;;;;;13.06;86.32;101643.72;4940284;29;20169;-70
2021/12/31 02:33:13;;;;;;;5.35;1.90;;;;;;;13.07;86.47;101644.56;4955374;29;20039;-71
2021/12/31 02:35:38;;;;;;;6.22;2.47;;;;;;;13.07;86.34;101641.84;4940059;29;20031;-71
2021/12/31 02:38:06;;;;;;;8.43;2.35;;;;;;;13.09;86.16;101637.03;4957046;29;20154;-71
2021/12/31 02:40:32;;;;;;;5.72;2.20;;;;;;;13.05;86.62;101635.81;4957152;29;20023;-70
2021/12/31 02:42:58;;;;;;;8.52;2.33;;;;;;;13.06;86.25;101637.47;4957191;29;20475;-71
2021/12/31 02:45:34;;;;;;;8.80;2.50;;;;;;;13.05;86.14;101628.47;4957650;29;20035;-70
2021/12/31 02:48:02;;;;;;;5.93;2.40;;;;;;;13.05;86.14;101625.75;4941826;29;20055;-71
2021/12/31 02:50:34;;;;;;;5.43;2.20;;;;;;;13.03;86.36;101627.03;4938137;29;20099;-71
2021/12/31 02:53:05;;;;;;;8.15;2.05;;;;;;;13.04;86.01;101623.25;4945691;29;20093;-70
2021/12/31 02:55:31;;;;;;;10.07;2.13;;;;;;;13.01;86.35;101627.25;4957196;29;20035;-71
2021/12/31 02:57:58;;;;;;;7.22;2.22;;;;;;;12.99;86.32;101623.13;4956904;29;20043;-71
2021/12/31 03:00:24;;;;;;;8.23;2.30;;;;;;;12.99;86.30;101617.69;4956503;29;20539;-71
2021/12/31 03:02:50;;;;;;;6.63;2.17;;;;;;;12.99;86.97;101629.38;4938181;29;20131;-71
2021/12/31 03:05:15;;;;;;;9.85;2.25;;;;;;;13.01;86.37;101627.25;4937876;29;20066;-69
2021/12/31 03:07:44;;;;;;;7.70;2.22;;;;;;;12.98;86.43;101630.41;4937016;29;20027;-70
2021/12/31 03:10:10;;;;;;;6.85;2.17;;;;;;;12.98;86.48;101635.03;4938063;29;20044;-71
2021/12/31 03:12:39;;;;;;;5.70;2.20;;;;;;;12.99;85.95;101621.22;4937783;29;20071;-70
2021/12/31 03:15:05;;;;;;;6.35;2.30;;;;;;;12.98;86.23;101630.41;4937605;29;20032;-71
2021/12/31 03:17:31;;;;;;;5.93;2.40;;;;;;;12.94;86.19;101613.72;4951037;29;20043;-70
2021/12/31 03:20:08;;;;;;;8.32;2.40;;;;;;;12.96;86.35;101621.66;4956493;29;20031;-70
2021/12/31 03:22:34;;;;;;;7.75;2.03;;;;;;;12.92;86.60;101612.28;4956735;29;20039;-70
2021/12/31 03:24:59;;;;;;;7.68;2.42;;;;;;;12.92;86.31;101609.56;4956398;29;20054;-71
2021/12/31 03:27:24;;;;;;;8.55;2.20;;;;;;;12.90;86.56;101611.69;4956750;29;20051;-71
2021/12/31 03:29:49;;;;;;;10.23;2.47;;;;;;;12.91;86.17;101616.91;4956471;29;20074;-71
2021/12/31 03:32:15;;;;;;;6.40;1.98;;;;;;;12.90;86.31;101611.69;4955915;29;20035;-71
2021/12/31 03:34:40;;;;;;;5.78;2.40;;;;;;;12.91;86.46;101616.06;4956321;29;20031;-71
2021/12/31 03:37:05;;;;;;;6.55;2.30;;;;;;;12.87;86.54;101618.38;4956424;29;20509;-71
2021/12/31 03:39:30;;;;;;;6.78;2.40;;;;;;;12.88;86.45;101600.22;4956482;29;20023;-71
2021/12/31 03:41:56;;;;;;;7.95;2.17;;;;;;;12.88;86.44;101601.03;4956427;29;20031;-71
2021/12/31 03:44:21;;;;;;;7.18;2.20;;;;;;;12.86;86.33;101595.00;4939158;29;20032;-71
2021/12/31 03:46:46;;;;;;;9.40;2.80;;;;;;;12.84;86.48;101590.84;4937091;29;20023;-71
2021/12/31 03:49:12;;;;;;;5.32;2.05;;;;;;;12.83;86.61;101591.88;4937096;29;20097;-71
2021/12/31 03:51:37;;;;;;;7.35;2.38;;;;;;;12.82;86.50;101592.94;4937322;29;20035;-71
2021/12/31 03:54:02;;;;;;;6.47;2.28;;;;;;;12.82;86.52;101588.34;4936914;29;20031;-71
2021/12/31 03:56:31;;;;;;;8.60;2.55;;;;;;;12.83;86.63;101592.75;4936946;29;20483;-71
2021/12/31 03:58:58;;;;;;;6.35;2.60;;;;;;;12.80;86.54;101595.88;4936714;29;20550;-70
2021/12/31 04:01:24;;;;;;;9.90;2.53;;;;;;;12.78;87.09;101592.56;4945369;29;20055;-71
2021/12/31 04:03:49;;;;;;;7.35;2.35;;;;;;;12.81;85.85;101600.25;4955740;29;20458;-71
2021/12/31 04:06:14;;;;;;;6.13;2.33;;;;;;;12.79;86.62;101596.09;4955949;29;20418;-71
2021/12/31 04:08:40;;;;;;;7.65;2.65;;;;;;;12.77;86.95;101593.59;4955287;29;20027;-71
2021/12/31 04:11:05;;;;;;;7.18;2.55;;;;;;;12.77;86.59;101599.88;4955860;29;20054;-70
2021/12/31 04:13:30;;;;;;;7.25;2.50;;;;;;;12.79;86.45;101598.81;4955725;29;20059;-71
2021/12/31 04:15:55;;;;;;;7.20;2.80;;;;;;;12.81;86.24;101600.25;4944779;29;20039;-71
2021/12/31 04:18:22;;;;;;;8.63;2.72;;;;;;;12.79;86.78;101599.66;4936377;29;20042;-70
2021/12/31 04:20:49;;;;;;;9.13;2.70;;;;;;;12.80;86.43;101604.03;4935163;29;20110;-71
2021/12/31 04:23:26;;;;;;;9.50;3.00;;;;;;;12.83;86.21;101609.03;4936460;29;20039;-71
2021/12/31 04:25:51;;;;;;;11.70;2.63;;;;;;;12.78;86.57;101608.84;4936214;29;20479;-71
2021/12/31 04:28:16;;;;;;;7.45;2.65;;;;;;;12.81;86.43;101602.97;4936371;29;20028;-70
2021/12/31 04:30:41;;;;;;;8.35;3.13;;;;;;;12.81;86.36;101594.81;4947055;29;20035;-71
2021/12/31 04:33:07;;;;;;;7.13;2.50;;;;;;;12.85;86.06;101589.81;4953472;29;20094;-71
2021/12/31 04:35:32;;;;;;;7.68;2.42;;;;;;;12.82;85.82;101587.50;4955014;29;20034;-70
2021/12/31 04:37:57;;;;;;;9.65;2.65;;;;;;;12.81;86.07;101586.69;4937391;29;20070;-71
2021/12/31 04:40:22;;;;;;;9.43;2.70;;;;;;;12.80;86.45;101590.44;4955330;29;20035;-71
2021/12/31 04:42:49;;;;;;;7.95;2.60;;;;;;;12.78;86.38;101584.41;4937513;29;20031;-71
2021/12/31 04:45:14;;;;;;;7.13;2.45;;;;;;;12.78;86.40;101584.41;4954556;29;20047;-71
2021/12/31 04:47:40;;;;;;;8.60;2.83;;;;;;;12.81;85.90;101581.25;4955184;29;20042;-70
2021/12/31 04:50:06;;;;;;;9.98;2.88;;;;;;;12.77;85.96;101569.16;4954900;29;20459;-71
2021/12/31 04:52:31;;;;;;;6.28;2.75;;;;;;;12.74;86.03;101558.75;4937867;29;20368;-70
2021/12/31 04:54:57;;;;;;;9.68;3.05;;;;;;;12.76;85.89;101570.22;4937477;29;20097;-71
2021/12/31 04:57:24;;;;;;;7.57;2.67;;;;;;;12.78;85.69;101568.13;4954712;29;20110;-70
2021/12/31 04:59:50;;;;;;;10.27;2.70;;;;;;;12.72;86.03;101579.88;4952676;29;20050;-70
2021/12/31 05:02:16;;;;;;;9.02;2.65;;;;;;;12.75;85.61;101584.84;4951611;29;20495;-70
2021/12/31 05:04:41;;;;;;;9.50;2.92;;;;;;;12.73;85.55;101568.78;4954924;29;20031;-70
2021/12/31 05:07:06;;;;;;;7.93;2.90;;;;;;;12.71;86.06;101581.75;4954945;29;20066;-71
2021/12/31 05:09:31;;;;;;;7.63;2.90;;;;;;;12.73;85.46;101586.97;4954874;29;20490;-71
2021/12/31 05:11:57;;;;;;;9.65;3.10;;;;;;;12.70;85.98;101579.28;4954431;29;20031;-71
2021/12/31 05:14:22;;;;;;;12.23;3.45;;;;;;;12.69;85.66;101580.31;4948514;29;20035;-71
2021/12/31 05:16:48;;;;;;;8.48;2.90;;;;;;;12.72;85.27;101588.00;4935358;29;20074;-70
2021/12/31 05:19:13;;;;;;;7.78;2.95;;;;;;;12.65;85.43;101574.50;4935586;29;20095;-71
2021/12/31 05:21:38;;;;;;;7.05;2.60;;;;;;;12.65;85.52;101570.94;4935573;29;20036;-71
2021/12/31 05:24:04;;;;;;;8.52;2.80;;;;;;;12.67;85.54;101571.56;4919210;29;20558;-71
2021/12/31 05:26:29;;;;;;;8.52;2.70;;;;;;;12.66;85.60;101572.59;4935345;29;20035;-71
2021/12/31 05:28:55;;;;;;;6.40;2.63;;;;;;;12.65;85.35;101571.78;4935231;29;20039;-71
2021/12/31 05:31:20;;;;;;;6.82;2.40;;;;;;;12.65;85.46;101576.38;4935136;29;20024;-70
2021/12/31 05:33:45;;;;;;;8.90;2.92;;;;;;;12.63;85.67;101575.75;4935312;29;20629;-71
2021/12/31 05:36:11;;;;;;;8.13;2.75;;;;;;;12.62;85.40;101557.81;4934936;29;20196;-71
2021/12/31 05:38:36;;;;;;;6.57;2.65;;;;;;;12.57;85.77;101553.03;4935405;29;20387;-71
2021/12/31 05:41:01;;;;;;;6.32;2.55;;;;;;;12.54;85.54;101548.88;4935401;29;20046;-71
2021/12/31 05:43:27;;;;;;;8.25;2.70;;;;;;;12.54;85.09;101542.63;4920850;29;20038;-71
2021/12/31 05:45:52;;;;;;;8.35;2.45;;;;;;;12.49;85.48;101532.44;4937060;29;20454;-71
2021/12/31 05:48:18;;;;;;;6.80;2.35;;;;;;;12.46;85.53;101537.47;4954421;29;20038;-71
2021/12/31 05:50:43;;;;;;;8.55;2.53;;;;;;;12.44;85.57;101526.00;4952451;29;20110;-71
2021/12/31 05:53:08;;;;;;;6.68;2.33;;;;;;;12.35;85.60;101526.28;4954089;29;20038;-71
2021/12/31 05:55:34;;;;;;;7.35;2.40;;;;;;;12.35;85.65;101523.56;4954339;29;20102;-71
2021/12/31 05:58:01;;;;;;;8.70;2.78;;;;;;;12.32;85.82;101528.59;4953524;29;20028;-71
2021/12/31 06:00:27;;;;;;;5.20;2.20;;;;;;;12.28;85.59;101528.19;4948475;29;20082;-71
2021/12/31 06:02:53;;;;;;;7.85;1.98;;;;;;;12.27;85.30;101531.13;4933294;29;20056;-71
2021/12/31 06:05:19;;;;;;;6.80;2.55;;;;;;;12.26;85.36;101541.16;4935204;29;20059;-70
2021/12/31 06:07:45;;;;;;;7.28;2.20;;;;;;;12.20;85.78;101540.16;4934875;29;20395;-71
2021/12/31 06:10:10;;;;;;;4.40;2.05;;;;;;;12.19;85.57;101541.19;4935130;29;20039;-70
2021/12/31 06:12:36;;;;;;;9.02;2.30;;;;;;;12.16;85.63;101536.22;4934834;29;20036;-71
2021/12/31 06:15:04;;;;;;;9.80;2.63;;;;;;;12.14;85.48;101527.47;4935790;29;20094;-71
2021/12/31 06:17:31;;;;;;;7.50;2.45;;;;;;;12.12;85.66;101534.97;4935045;29;20122;-71
2021/12/31 06:19:57;;;;;;;9.27;2.90;;;;;;;12.12;85.68;101539.56;4934774;29;20042;-71
2021/12/31 06:22:23;;;;;;;6.40;2.35;;;;;;;12.08;85.79;101554.63;4934734;29;20036;-70
2021/12/31 06:24:50;;;;;;;7.13;2.63;;;;;;;12.05;85.84;101556.72;4934991;29;20047;-70
2021/12/31 06:27:16;;;;;;;7.00;2.50;;;;;;;12.06;85.79;101562.97;4934708;29;20042;-70
2021/12/31 06:29:41;;;;;;;6.38;2.30;;;;;;;12.05;85.80;101561.34;4934905;29;20039;-71
2021/12/31 06:32:06;;;;;;;5.53;2.20;;;;;;;12.02;85.65;101553.63;4934405;29;20035;-70
2021/12/31 06:34:32;;;;;;;5.72;2.42;;;;;;;12.01;85.47;101552.78;4934584;29;20059;-70
2021/12/31 06:36:57;;;;;;;5.53;2.30;;;;;;;11.96;85.73;101547.19;4934492;29;20471;-70
2021/12/31 06:39:22;;;;;;;4.82;1.90;;;;;;;12.00;85.68;101553.84;4946313;29;20027;-70
2021/12/31 06:41:48;;;;;;;5.57;2.15;;;;;;;11.97;85.71;101558.84;4954234;29;20031;-70
2021/12/31 06:44:13;;;;;;;6.43;2.40;;;;;;;11.96;85.57;101563.47;4955969;28;20039;-71
2021/12/31 06:46:39;;;;;;;6.63;2.22;;;;;;;11.94;85.71;101575.56;4957051;29;20102;-70
2021/12/31 06:49:05;;;;;;;6.75;2.28;;;;;;;11.92;85.62;101570.31;4957352;29;20031;-70
2021/12/31 06:51:30;;;;;;;6.63;2.40;;;;;;;11.92;85.76;101577.63;4957044;29;20043;-70
2021/12/31 06:53:55;;;;;;;6.20;2.20;;;;;;;11.88;85.61;101577.22;4956283;29;20038;-70
2021/12/31 06:56:20;;;;;;;5.82;2.00;;;;;;;11.87;85.26;101564.72;4957195;29;20027;-71
2021/12/31 06:58:45;;;;;;;5.25;2.13;;;;;;;11.82;85.80;101546.41;4957417;29;20042;-70
2021/12/31 07:01:11;;;;;;;6.00;2.03;;;;;;;11.81;85.70;101565.59;4953282;29;20027;-71
2021/12/31 07:03:36;;;;;;;3.88;2.20;;;;;;;11.77;85.96;101558.94;4939901;29;20455;-70
2021/12/31 07:06:02;;;;;;;4.32;2.05;;;;;;;11.77;85.57;101565.19;4945251;29;20047;-71
2021/12/31 07:08:27;;;;;;;6.95;2.40;;;;;;;11.74;86.22;101581.88;4947800;29;20035;-71
2021/12/31 07:10:53;;;;;;;6.28;2.35;;;;;;;11.73;85.98;101588.38;4956734;29;20135;-71
2021/12/31 07:13:18;;;;;;;10.27;2.65;;;;;;;11.74;85.87;101587.31;4956673;29;20031;-71
2021/12/31 07:15:48;;;;;;;4.10;2.22;;;;;;;11.76;85.96;101589.78;4957187;29;20095;-71
2021/12/31 07:18:23;;;;;;;6.88;2.58;;;;;;;11.73;85.82;101568.53;4956596;29;20082;-70
2021/12/31 07:20:49;;;;;;;5.43;2.20;;;;;;;11.70;86.07;101581.50;4956253;29;20042;-70
2021/12/31 07:23:17;;;;;;;3.28;2.03;;;;;;;11.68;85.94;101588.16;4955567;29;20074;-71
2021/12/31 07:25:43;;;;;;;5.15;2.03;;;;;;;11.67;86.03;101581.91;4956659;29;20027;-70
2021/12/31 07:28:09;;;;;;;6.45;2.28;;;;;;;11.69;85.84;101589.84;4956123;29;20042;-71
2021/12/31 07:30:35;;;;;;;7.18;2.45;;;;;;;11.65;86.03;101604.84;4954664;29;20035;-70
2021/12/31 07:33:01;;;;;;;7.85;2.33;;;;;;;11.63;85.93;101586.09;4956374;29;20023;-71
2021/12/31 07:35:26;;;;;;;5.03;2.40;;;;;;;11.63;86.02;101582.56;4956173;29;20372;-70
2021/12/31 07:37:55;;;;;;;7.32;2.53;;;;;;;11.61;86.04;101599.03;4956004;29;20055;-71
2021/12/31 07:40:24;;;;;;;5.20;2.22;;;;;;;11.60;85.64;101594.66;4956369;29;20090;-71
2021/12/31 07:42:50;;;;;;;5.45;2.40;;;;;;;11.58;85.89;101599.47;4938725;29;20039;-71
2021/12/31 07:45:15;;;;;;;6.80;2.30;;;;;;;11.55;86.09;101588.19;4955823;29;20169;-70
2021/12/31 07:47:40;;;;;;;5.57;2.40;;;;;;;11.53;85.89;101591.13;4952573;29;20031;-73
2021/12/31 07:50:06;;;;;;;7.55;2.40;;;;;;;11.56;86.00;101598.00;4955691;29;20470;-76
2021/12/31 07:52:31;;;;;;;8.05;2.40;;;;;;;11.54;85.73;101603.66;4956364;29;20038;-75
2021/12/31 07:54:56;;;;;;;7.55;2.25;;;;;;;11.53;85.73;101607.38;4955850;28;20038;-79
2021/12/31 07:57:22;;;;;;;5.32;2.70;;;;;;;11.52;85.65;101612.00;4954278;29;20058;-78
2021/12/31 07:59:47;;;;;;;6.00;2.42;;;;;;;11.51;85.65;101610.31;4956168;29;20027;-74
2021/12/31 08:02:12;;;;;;;5.85;2.50;;;;;;;11.50;85.70;101614.09;4934548;29;20079;-81
2021/12/31 08:04:37;;;;;;;6.72;2.50;;;;;;;11.51;85.63;101621.16;4938476;29;20467;-82
2021/12/31 08:07:03;;;;;;;8.45;2.47;;;;;;;11.50;84.93;101627.66;4955825;29;20049;-81
2021/12/31 08:09:28;;;;;;;6.00;2.42;;;;;;;11.46;85.42;101620.97;4938672;29;20474;-81
2021/12/31 08:11:53;;;;;;;6.07;2.30;;;;;;;11.45;85.75;101622.00;4944109;29;20126;-81
2021/12/31 08:14:19;;;;;;;4.68;2.30;;;;;;;11.44;85.63;101619.50;4919276;29;20394;-78
2021/12/31 08:16:44;;;;;;;5.50;2.60;;;;;;;11.46;85.29;101615.56;4919620;29;20090;-87
2021/12/31 08:19:09;;;;;;;7.28;2.60;;;;;;;11.42;85.81;101617.00;4920129;29;20498;-76
2021/12/31 08:21:34;;;;;;;5.45;2.40;;;;;;;11.45;85.53;101616.59;4938503;29;20040;-81
2021/12/31 08:24:00;;;;;;;4.53;2.10;;;;;;;11.44;85.75;101612.19;4931288;29;20031;-78
2021/12/31 08:26:25;;;;;;;8.73;2.20;;;;;;;11.41;85.44;101593.66;4936674;29;20035;-76
2021/12/31 08:28:50;;;;;;;6.43;2.30;;;;;;;11.41;85.71;101585.53;4955553;29;20031;-76
2021/12/31 08:31:16;;;;;;;5.95;2.60;;;;;;;11.42;85.21;101578.25;4933075;29;20479;-77
2021/12/31 08:33:41;;;;;;;5.40;2.40;;;;;;;11.46;85.18;101585.75;4940915;29;20036;-75
2021/12/31 08:36:07;;;;;;;6.75;2.50;;;;;;;11.48;84.69;101599.91;4935718;29;20056;-75
2021/12/31 08:38:33;;;;;;;5.40;2.58;;;;;;;11.47;84.81;101603.69;4936219;29;20027;-75
2021/12/31 08:40:59;;;;;;;8.23;2.58;;;;;;;11.50;84.68;101607.81;4919103;29;20031;-81
2021/12/31 08:43:25;;;;;;;5.05;2.28;;;;;;;11.55;84.35;101601.75;4919156;29;20369;-81
2021/12/31 08:45:50;;;;;;;4.40;2.42;;;;;;;11.57;84.27;101599.69;4929560;29;20042;-79
2021/12/31 08:48:15;;;;;;;4.47;2.60;;;;;;;11.56;84.90;101600.72;4953408;29;20109;-76
2021/12/31 08:50:41;;;;;;;3.35;2.20;;;;;;;11.56;84.64;101588.00;4955080;29;20104;-76
2021/12/31 08:53:06;;;;;;;6.55;2.50;;;;;;;11.61;84.17;101587.34;4949305;29;20036;-77
2021/12/31 08:55:31;;;;;;;4.50;2.28;;;;;;;11.63;83.92;101590.69;4935813;29;20027;-74
2021/12/31 08:57:57;;;;;;;4.80;2.25;;;;;;;11.64;83.71;101576.06;4935790;29;20468;-81
2021/12/31 09:00:22;;;;;;;4.20;2.15;;;;;;;11.65;83.56;101569.63;4917968;29;20098;-78
2021/12/31 09:02:50;;;;;;;3.83;2.10;;;;;;;11.65;83.99;101567.72;4950385;29;20073;-75
2021/12/31 09:05:15;;;;;;;4.88;2.38;;;;;;;11.68;83.67;101571.91;4954516;28;20043;-79
2021/12/31 09:07:40;;;;;;;6.28;2.78;;;;;;;11.72;83.39;101585.88;4949566;29;20040;-78
2021/12/31 09:10:08;;;;;;;5.25;2.45;;;;;;;11.73;83.71;101563.13;4934205;29;20110;-75
2021/12/31 09:12:33;;;;;;;4.85;2.15;;;;;;;11.77;83.69;101570.59;4935517;29;20498;-76
2021/12/31 09:14:58;;;;;;;7.30;2.30;;;;;;;11.82;83.26;101580.78;4935693;29;20031;-76
2021/12/31 09:17:24;;;;;;;5.15;2.15;;;;;;;11.81;83.27;101581.88;4934114;29;20075;-75
2021/12/31 09:19:50;;;;;;;5.25;2.78;;;;;;;11.80;83.63;101578.31;4935604;29;20034;-78
2021/12/31 09:22:16;;;;;;;4.15;2.20;;;;;;;11.79;83.37;101587.50;4937847;29;20035;-79
2021/12/31 09:24:41;;;;;;;3.85;2.08;;;;;;;11.80;83.59;101585.63;4950052;29;20105;-76
2021/12/31 09:27:06;;;;;;;5.90;2.17;;;;;;;11.81;83.67;101581.88;4952958;29;20032;-79
2021/12/31 09:29:32;;;;;;;4.03;2.10;;;;;;;11.82;83.21;101597.06;4935302;29;20380;-76
2021/12/31 09:31:57;;;;;;;3.67;2.10;;;;;;;11.84;82.96;101603.94;4935595;29;20036;-76
2021/12/31 09:34:22;;;;;;;2.90;2.03;;;;;;;11.83;83.20;101602.28;4935212;29;20455;-76
2021/12/31 09:36:48;;;;;;;4.90;2.05;;;;;;;11.85;83.46;101618.34;4935039;29;20048;-75
2021/12/31 09:39:13;;;;;;;5.53;2.00;;;;;;;11.86;83.44;101618.13;4934896;29;20047;-74
2021/12/31 09:41:38;;;;;;;3.90;1.90;;;;;;;11.89;83.01;101622.28;4917954;29;20031;-76
2021/12/31 09:44:04;;;;;;;4.22;2.17;;;;;;;11.92;82.88;101621.03;4935209;29;20031;-77
2021/12/31 09:46:29;;;;;;;5.10;2.08;;;;;;;11.98;82.54;101625.63;4935346;29;20391;-76
2021/12/31 09:48:55;;;;;;;2.70;1.90;;;;;;;11.98;82.90;101625.63;4934924;29;20118;-79
2021/12/31 09:51:21;;;;;;;4.80;2.25;;;;;;;11.99;82.66;101638.97;4917948;29;20046;-79
2021/12/31 09:53:46;;;;;;;2.78;1.95;;;;;;;12.00;82.07;101639.81;4918788;29;20032;-80
2021/12/31 09:56:13;;;;;;;3.72;2.30;;;;;;;12.04;82.50;101636.44;4918020;29;20071;-78
2021/12/31 09:58:39;;;;;;;4.22;2.10;;;;;;;12.04;82.47;101638.31;4918129;29;20490;-77
2021/12/31 10:01:08;;;;;;;2.78;1.90;;;;;;;12.05;82.21;101627.25;4935630;29;21136;-75
2021/12/31 10:03:35;;;;;;;5.53;2.50;;;;;;;12.07;82.50;101613.47;4954322;29;20042;-72
2021/12/31 10:06:06;;;;;;;6.25;2.35;;;;;;;12.05;82.55;101619.13;4954386;29;20039;-72
2021/12/31 10:08:38;;;;;;;6.25;2.30;;;;;;;12.08;82.84;101626.00;4954124;29;20125;-72
2021/12/31 10:11:06;;;;;;;5.25;2.33;;;;;;;12.10;82.16;101644.78;4954132;29;20038;-72
2021/12/31 10:13:32;;;;;;;5.40;2.63;;;;;;;12.09;82.27;101627.66;4953820;29;20390;-71
2021/12/31 10:15:57;;;;;;;7.03;2.50;;;;;;;12.06;81.77;101617.22;4951999;29;20544;-70
2021/12/31 10:18:37;;;;;;;3.47;2.10;;;;;;;12.09;82.06;101588.84;4944403;28;20114;-73
2021/12/31 10:21:05;;;;;;;5.40;2.65;;;;;;;12.04;82.16;101582.19;4938933;29;20093;-72
2021/12/31 10:23:31;;;;;;;7.38;2.35;;;;;;;12.06;82.10;101611.81;4967509;28;20062;-73
2021/12/31 10:26:07;;;;;;;4.03;2.60;;;;;;;12.08;82.83;101627.88;4977089;28;20039;-74
2021/12/31 10:28:33;;;;;;;5.22;2.08;;;;;;;12.07;82.58;101597.19;4976991;28;20023;-73
2021/12/31 10:31:13;;;;;;;3.20;2.20;;;;;;;12.11;82.59;101603.00;4959577;28;20031;-72
2021/12/31 10:33:44;;;;;;;4.32;2.03;;;;;;;12.07;82.64;101612.66;4973413;28;20031;-72
2021/12/31 10:36:38;;;;;;;6.78;2.60;;;;;;;12.13;83.14;101612.63;4939013;29;20071;-72
2021/12/31 10:39:25;;;;;;;5.00;2.45;;;;;;;12.12;83.01;101600.09;4953452;29;20035;-72
2021/12/31 10:41:59;;;;;;;4.65;2.00;;;;;;;12.14;83.06;101606.16;4957520;29;20035;-73
2021/12/31 10:44:40;;;;;;;5.97;2.30;;;;;;;12.14;82.79;101613.44;4940851;29;20045;-76
2021/12/31 10:47:17;;;;;;;8.00;2.75;;;;;;;12.10;82.28;101629.31;4938286;29;20126;-75
2021/12/31 10:50:01;;;;;;;3.95;2.63;;;;;;;12.16;82.82;101625.75;4938181;29;20162;-76
2021/12/31 10:52:41;;;;;;;3.78;2.45;;;;;;;12.14;82.65;101633.28;4921069;29;20271;-75
2021/12/31 10:55:24;;;;;;;3.05;2.10;;;;;;;12.15;82.03;101629.53;4937944;29;20035;-75
2021/12/31 10:57:52;;;;;;;5.78;2.60;;;;;;;12.19;81.85;101622.59;4938184;29;20539;-78
2021/12/31 11:00:19;;;;;;;4.63;2.80;;;;;;;12.16;82.49;101630.34;4937650;29;20036;-74
2021/12/31 11:02:45;;;;;;;4.57;2.70;;;;;;;12.13;82.32;101623.47;4931442;29;20055;-74
2021/12/31 11:05:12;;;;;;;7.28;3.00;;;;;;;12.18;82.33;101615.53;4946579;29;20505;-73
2021/12/31 11:07:39;;;;;;;5.32;2.67;;;;;;;12.16;82.50;101614.88;4921397;29;20470;-76
2021/12/31 11:10:06;;;;;;;8.10;2.85;;;;;;;12.19;82.04;101614.47;4920810;29;20478;-74
2021/12/31 11:12:34;;;;;;;6.60;2.67;;;;;;;12.15;82.22;101615.97;4937858;29;20120;-73
2021/12/31 11:15:00;;;;;;;3.90;2.70;;;;;;;12.16;82.33;101603.22;4920570;29;20039;-73
2021/12/31 11:17:25;;;;;;;4.45;2.60;;;;;;;12.16;82.55;101600.50;4937455;29;20040;-73
2021/12/31 11:19:52;;;;;;;5.82;2.67;;;;;;;12.19;82.03;101595.47;4937674;29;20087;-75
2021/12/31 11:22:21;;;;;;;4.22;2.20;;;;;;;12.22;82.77;101586.88;4937407;29;20038;-74